sensor_id;sensor_type;location;lat;lon;timestamp;P1;P2;P0
13030;PMS7003;6582;54.644;9.760;2023-05-23T00:00:02;75.0;64.2;
13030;PMS7003;6582;54.644;9.760;2023-05-23T00:05:01;75.6;65.0;
13030;PMS7003;6582;54.644;9.760;2023-05-23T00:10:01;76.8;65.8;
13030;PMS7003;6582;54.644;9.760;2023-05-23T00:15:01;77.8;67.0;
13030;PMS7003;6582;54.644;9.760;2023-05-23T00:20:01;78.4;67.0;
13030;PMS7003;6582;54.644;9.760;2023-05-23T00:25:01;79.0;67.2;
13030;PMS7003;6582;54.644;9.760;2023-05-23T00:30:06;77.6;65.4;
13030;PMS7003;6582;54.644;9.760;2023-05-23T00:35:01;76.4;64.1;
13030;PMS7003;6582;54.644;9.760;2023-05-23T00:40:06;74.6;62.2;
13030;PMS7003;6582;54.644;9.760;2023-05-23T00:45:01;73.6;61.8;
13030;PMS7003;6582;54.644;9.760;2023-05-23T00:50:01;72.7;60.9;
13030;PMS7003;6582;54.644;9.760;2023-05-23T00:55:03;73.9;62.7;
13030;PMS7003;6582;54.644;9.760;2023-05-23T01:00:02;74.3;63.2;
13030;PMS7003;6582;54.644;9.760;2023-05-23T01:05:05;75.5;64.8;
13030;PMS7003;6582;54.644;9.760;2023-05-23T01:10:06;77.9;66.5;
13030;PMS7003;6582;54.644;9.760;2023-05-23T01:15:10;79.1;67.7;
13030;PMS7003;6582;54.644;9.760;2023-05-23T01:25:10;79.9;68.1;
13030;PMS7003;6582;54.644;9.760;2023-05-23T01:30:01;78.8;66.5;
13030;PMS7003;6582;54.644;9.760;2023-05-23T01:35:02;76.4;64.3;
13030;PMS7003;6582;54.644;9.760;2023-05-23T01:40:01;75.4;64.0;
13030;PMS7003;6582;54.644;9.760;2023-05-23T01:45:01;75.3;64.1;
13030;PMS7003;6582;54.644;9.760;2023-05-23T01:50:02;75.1;64.0;
13030;PMS7003;6582;54.644;9.760;2023-05-23T01:55:02;82.6;72.2;
13030;PMS7003;6582;54.644;9.760;2023-05-23T02:00:01;83.2;73.0;
13030;PMS7003;6582;54.644;9.760;2023-05-23T02:05:01;83.5;73.0;
13030;PMS7003;6582;54.644;9.760;2023-05-23T02:10:02;83.7;73.0;
13030;PMS7003;6582;54.644;9.760;2023-05-23T02:15:01;84.0;73.5;
13030;PMS7003;6582;54.644;9.760;2023-05-23T02:20:06;77.8;67.3;
13030;PMS7003;6582;54.644;9.760;2023-05-23T02:30:01;78.4;68.2;
13030;PMS7003;6582;54.644;9.760;2023-05-23T02:35:02;78.1;68.1;
13030;PMS7003;6582;54.644;9.760;2023-05-23T02:40:01;77.1;67.0;
13030;PMS7003;6582;54.644;9.760;2023-05-23T02:45:01;76.6;66.6;
13030;PMS7003;6582;54.644;9.760;2023-05-23T02:50:01;76.8;67.1;
13030;PMS7003;6582;54.644;9.760;2023-05-23T02:55:07;76.2;66.5;
13030;PMS7003;6582;54.644;9.760;2023-05-23T03:00:01;76.6;66.8;
13030;PMS7003;6582;54.644;9.760;2023-05-23T03:05:01;77.4;67.6;
13030;PMS7003;6582;54.644;9.760;2023-05-23T03:10:01;77.8;67.4;
13030;PMS7003;6582;54.644;9.760;2023-05-23T03:15:02;77.9;67.2;
13030;PMS7003;6582;54.644;9.760;2023-05-23T03:20:01;78.6;67.8;
13030;PMS7003;6582;54.644;9.760;2023-05-23T03:25:01;78.8;68.0;
13030;PMS7003;6582;54.644;9.760;2023-05-23T03:30:02;78.8;67.7;
13030;PMS7003;6582;54.644;9.760;2023-05-23T03:35:01;79.1;67.8;
13030;PMS7003;6582;54.644;9.760;2023-05-23T03:40:06;79.0;66.8;
13030;PMS7003;6582;54.644;9.760;2023-05-23T03:45:01;78.7;66.0;
13030;PMS7003;6582;54.644;9.760;2023-05-23T03:50:01;82.6;70.6;
13030;PMS7003;6582;54.644;9.760;2023-05-23T03:55:01;83.3;71.0;
13030;PMS7003;6582;54.644;9.760;2023-05-23T04:00:02;83.4;71.2;
13030;PMS7003;6582;54.644;9.760;2023-05-23T04:05:02;84.2;72.6;
13030;PMS7003;6582;54.644;9.760;2023-05-23T04:10:02;83.7;73.0;
13030;PMS7003;6582;54.644;9.760;2023-05-23T04:15:02;79.4;67.8;
13030;PMS7003;6582;54.644;9.760;2023-05-23T04:20:01;78.6;67.5;
13030;PMS7003;6582;54.644;9.760;2023-05-23T04:25:03;77.8;67.1;
13030;PMS7003;6582;54.644;9.760;2023-05-23T04:30:01;76.8;66.4;
13030;PMS7003;6582;54.644;9.760;2023-05-23T04:35:02;83.1;73.5;
13030;PMS7003;6582;54.644;9.760;2023-05-23T04:40:02;83.6;73.8;
13030;PMS7003;6582;54.644;9.760;2023-05-23T04:45:02;84.0;74.0;
13030;PMS7003;6582;54.644;9.760;2023-05-23T04:50:01;84.5;73.7;
13030;PMS7003;6582;54.644;9.760;2023-05-23T04:55:07;85.2;74.8;
13030;PMS7003;6582;54.644;9.760;2023-05-23T05:00:02;79.6;68.7;
13030;PMS7003;6582;54.644;9.760;2023-05-23T05:05:02;79.5;68.7;
13030;PMS7003;6582;54.644;9.760;2023-05-23T05:10:02;79.0;68.3;
13030;PMS7003;6582;54.644;9.760;2023-05-23T05:15:02;79.0;68.9;
13030;PMS7003;6582;54.644;9.760;2023-05-23T05:20:01;79.2;68.9;
13030;PMS7003;6582;54.644;9.760;2023-05-23T05:25:01;79.9;69.0;
13030;PMS7003;6582;54.644;9.760;2023-05-23T05:30:04;81.7;71.8;
13030;PMS7003;6582;54.644;9.760;2023-05-23T05:35:01;82.7;73.5;
13030;PMS7003;6582;54.644;9.760;2023-05-23T05:40:01;83.7;74.8;
13030;PMS7003;6582;54.644;9.760;2023-05-23T05:45:01;84.6;75.9;
13030;PMS7003;6582;54.644;9.760;2023-05-23T05:50:01;84.8;76.4;
13030;PMS7003;6582;54.644;9.760;2023-05-23T05:55:07;82.9;74.4;
13030;PMS7003;6582;54.644;9.760;2023-05-23T06:00:01;82.2;73.9;
13030;PMS7003;6582;54.644;9.760;2023-05-23T06:05:16;81.6;73.5;
13030;PMS7003;6582;54.644;9.760;2023-05-23T06:10:02;79.8;71.6;
13030;PMS7003;6582;54.644;9.760;2023-05-23T06:15:01;78.7;70.9;
13030;PMS7003;6582;54.644;9.760;2023-05-23T06:25:02;78.3;69.7;
13030;PMS7003;6582;54.644;9.760;2023-05-23T06:30:03;80.0;70.6;
13030;PMS7003;6582;54.644;9.760;2023-05-23T06:35:03;80.8;71.4;
13030;PMS7003;6582;54.644;9.760;2023-05-23T06:40:01;80.9;70.7;
13030;PMS7003;6582;54.644;9.760;2023-05-23T06:45:02;80.8;70.0;
13030;PMS7003;6582;54.644;9.760;2023-05-23T07:10:01;68.2;56.0;
13030;PMS7003;6582;54.644;9.760;2023-05-23T07:15:06;82.2;67.8;
13030;PMS7003;6582;54.644;9.760;2023-05-23T07:20:07;78.4;64.7;
13030;PMS7003;6582;54.644;9.760;2023-05-23T07:25:07;76.7;62.7;
13030;PMS7003;6582;54.644;9.760;2023-05-23T07:30:08;76.1;62.0;
13030;PMS7003;6582;54.644;9.760;2023-05-23T07:35:07;77.6;63.1;
13030;PMS7003;6582;54.644;9.760;2023-05-23T07:40:01;73.0;58.8;
13030;PMS7003;6582;54.644;9.760;2023-05-23T07:45:07;73.8;59.3;
13030;PMS7003;6582;54.644;9.760;2023-05-23T07:50:01;74.9;59.8;
13030;PMS7003;6582;54.644;9.760;2023-05-23T07:55:01;75.6;59.8;
13030;PMS7003;6582;54.644;9.760;2023-05-23T08:00:01;74.6;59.1;
13030;PMS7003;6582;54.644;9.760;2023-05-23T08:05:02;77.4;62.0;
13030;PMS7003;6582;54.644;9.760;2023-05-23T08:10:01;76.6;61.0;
13030;PMS7003;6582;54.644;9.760;2023-05-23T08:15:02;75.3;60.4;
13030;PMS7003;6582;54.644;9.760;2023-05-23T08:20:01;73.9;59.6;
13030;PMS7003;6582;54.644;9.760;2023-05-23T08:25:12;74.0;59.0;
13030;PMS7003;6582;54.644;9.760;2023-05-23T08:30:07;75.2;61.8;
13030;PMS7003;6582;54.644;9.760;2023-05-23T08:40:01;75.4;61.7;
13030;PMS7003;6582;54.644;9.760;2023-05-23T08:45:01;75.8;61.6;
13030;PMS7003;6582;54.644;9.760;2023-05-23T08:50:03;77.0;62.6;
13030;PMS7003;6582;54.644;9.760;2023-05-23T08:55:02;74.2;57.5;
13030;PMS7003;6582;54.644;9.760;2023-05-23T09:00:07;75.2;58.5;
13030;PMS7003;6582;54.644;9.760;2023-05-23T09:05:02;76.4;59.1;
13030;PMS7003;6582;54.644;9.760;2023-05-23T09:10:02;82.3;67.8;
13030;PMS7003;6582;54.644;9.760;2023-05-23T09:15:05;82.2;68.3;
13030;PMS7003;6582;54.644;9.760;2023-05-23T09:20:01;81.7;68.3;
13030;PMS7003;6582;54.644;9.760;2023-05-23T09:25:03;81.8;68.2;
13030;PMS7003;6582;54.644;9.760;2023-05-23T09:30:06;80.7;67.6;
13030;PMS7003;6582;54.644;9.760;2023-05-23T09:35:02;75.2;59.2;
13030;PMS7003;6582;54.644;9.760;2023-05-23T09:40:06;74.3;58.4;
13030;PMS7003;6582;54.644;9.760;2023-05-23T09:45:11;74.2;57.9;
13030;PMS7003;6582;54.644;9.760;2023-05-23T09:50:01;77.3;62.8;
13030;PMS7003;6582;54.644;9.760;2023-05-23T09:55:01;81.9;67.8;
13030;PMS7003;6582;54.644;9.760;2023-05-23T10:00:03;87.2;74.3;
13030;PMS7003;6582;54.644;9.760;2023-05-23T10:05:02;95.6;83.6;
13030;PMS7003;6582;54.644;9.760;2023-05-23T10:10:02;101.4;91.4;
13030;PMS7003;6582;54.644;9.760;2023-05-23T10:15:02;104.3;94.1;
13030;PMS7003;6582;54.644;9.760;2023-05-23T10:20:03;106.2;97.2;
13030;PMS7003;6582;54.644;9.760;2023-05-23T10:25:03;103.3;95.1;
13030;PMS7003;6582;54.644;9.760;2023-05-23T10:30:01;100.7;93.5;
13030;PMS7003;6582;54.644;9.760;2023-05-23T10:50:02;85.6;82.4;
13030;PMS7003;6582;54.644;9.760;2023-05-23T10:55:01;86.9;79.9;
13030;PMS7003;6582;54.644;9.760;2023-05-23T11:00:01;85.5;76.1;
13030;PMS7003;6582;54.644;9.760;2023-05-23T11:05:17;84.4;75.6;
13030;PMS7003;6582;54.644;9.760;2023-05-23T11:20:03;83.8;73.6;
13030;PMS7003;6582;54.644;9.760;2023-05-23T11:25:09;82.9;71.0;
13030;PMS7003;6582;54.644;9.760;2023-05-23T11:30:03;83.3;72.5;
13030;PMS7003;6582;54.644;9.760;2023-05-23T11:35:03;103.1;92.8;
13030;PMS7003;6582;54.644;9.760;2023-05-23T12:00:01;82.8;74.4;
13030;PMS7003;6582;54.644;9.760;2023-05-23T12:05:05;82.9;74.8;
13030;PMS7003;6582;54.644;9.760;2023-05-23T12:10:02;87.0;78.5;
13030;PMS7003;6582;54.644;9.760;2023-05-23T12:15:01;104.8;97.0;
13030;PMS7003;6582;54.644;9.760;2023-05-23T12:20:04;112.7;104.4;
13030;PMS7003;6582;54.644;9.760;2023-05-23T12:25:01;125.1;116.8;
13030;PMS7003;6582;54.644;9.760;2023-05-23T12:30:08;131.5;123.7;
13030;PMS7003;6582;54.644;9.760;2023-05-23T12:35:02;145.7;139.0;
13030;PMS7003;6582;54.644;9.760;2023-05-23T12:40:09;149.3;142.5;
13030;PMS7003;6582;54.644;9.760;2023-05-23T12:45:01;150.5;144.6;
13030;PMS7003;6582;54.644;9.760;2023-05-23T12:50:01;153.4;147.9;
13030;PMS7003;6582;54.644;9.760;2023-05-23T12:55:07;159.2;153.5;
13030;PMS7003;6582;54.644;9.760;2023-05-23T13:00:07;153.9;147.5;
13030;PMS7003;6582;54.644;9.760;2023-05-23T13:05:06;146.4;139.3;
13030;PMS7003;6582;54.644;9.760;2023-05-23T13:10:01;147.7;140.1;
13030;PMS7003;6582;54.644;9.760;2023-05-23T13:15:01;138.4;131.9;
13030;PMS7003;6582;54.644;9.760;2023-05-23T13:20:01;132.4;126.2;
13030;PMS7003;6582;54.644;9.760;2023-05-23T13:25:01;127.4;121.2;
13030;PMS7003;6582;54.644;9.760;2023-05-23T13:30:06;122.7;117.2;
13030;PMS7003;6582;54.644;9.760;2023-05-23T13:35:01;107.7;103.3;
13030;PMS7003;6582;54.644;9.760;2023-05-23T13:40:02;110.6;104.7;
13030;PMS7003;6582;54.644;9.760;2023-05-23T13:45:01;108.8;102.4;
13030;PMS7003;6582;54.644;9.760;2023-05-23T13:50:02;108.5;103.0;
13030;PMS7003;6582;54.644;9.760;2023-05-23T13:55:02;113.8;107.9;
13030;PMS7003;6582;54.644;9.760;2023-05-23T14:00:01;127.3;120.4;
13030;PMS7003;6582;54.644;9.760;2023-05-23T14:05:02;134.5;127.3;
13030;PMS7003;6582;54.644;9.760;2023-05-23T14:10:01;147.4;139.7;
13030;PMS7003;6582;54.644;9.760;2023-05-23T14:15:01;158.4;149.8;
13030;PMS7003;6582;54.644;9.760;2023-05-23T14:20:02;163.2;154.5;
13030;PMS7003;6582;54.644;9.760;2023-05-23T14:25:01;168.5;159.8;
13030;PMS7003;6582;54.644;9.760;2023-05-23T14:30:01;160.6;151.4;
13030;PMS7003;6582;54.644;9.760;2023-05-23T14:35:01;153.3;144.8;
13030;PMS7003;6582;54.644;9.760;2023-05-23T14:40:02;146.7;138.2;
13030;PMS7003;6582;54.644;9.760;2023-05-23T14:45:01;154.5;146.8;
13030;PMS7003;6582;54.644;9.760;2023-05-23T14:50:01;148.9;140.9;
13030;PMS7003;6582;54.644;9.760;2023-05-23T14:55:01;149.9;142.2;
13030;PMS7003;6582;54.644;9.760;2023-05-23T15:00:01;151.7;143.6;
13030;PMS7003;6582;54.644;9.760;2023-05-23T15:05:02;149.0;140.5;
13030;PMS7003;6582;54.644;9.760;2023-05-23T15:10:01;132.4;122.7;
13030;PMS7003;6582;54.644;9.760;2023-05-23T15:15:01;128.6;116.9;
13030;PMS7003;6582;54.644;9.760;2023-05-23T15:20:01;125.8;114.0;
13030;PMS7003;6582;54.644;9.760;2023-05-23T15:25:01;120.5;108.6;
13030;PMS7003;6582;54.644;9.760;2023-05-23T15:30:02;117.8;105.6;
13030;PMS7003;6582;54.644;9.760;2023-05-23T15:35:01;112.2;99.4;
13030;PMS7003;6582;54.644;9.760;2023-05-23T15:40:01;107.1;96.6;
13030;PMS7003;6582;54.644;9.760;2023-05-23T15:45:01;108.6;98.8;
13030;PMS7003;6582;54.644;9.760;2023-05-23T15:50:01;107.3;97.5;
13030;PMS7003;6582;54.644;9.760;2023-05-23T15:55:01;107.7;98.5;
13030;PMS7003;6582;54.644;9.760;2023-05-23T16:00:01;113.8;105.5;
13030;PMS7003;6582;54.644;9.760;2023-05-23T16:05:01;120.2;111.8;
13030;PMS7003;6582;54.644;9.760;2023-05-23T16:10:01;122.5;113.3;
13030;PMS7003;6582;54.644;9.760;2023-05-23T16:15:01;126.9;117.6;
13030;PMS7003;6582;54.644;9.760;2023-05-23T16:20:01;131.8;122.8;
13030;PMS7003;6582;54.644;9.760;2023-05-23T16:25:01;136.7;128.2;
13030;PMS7003;6582;54.644;9.760;2023-05-23T16:30:01;132.6;124.0;
13030;PMS7003;6582;54.644;9.760;2023-05-23T16:35:06;124.4;115.8;
13030;PMS7003;6582;54.644;9.760;2023-05-23T16:40:02;115.6;106.6;
13030;PMS7003;6582;54.644;9.760;2023-05-23T16:45:01;105.3;94.1;
13030;PMS7003;6582;54.644;9.760;2023-05-23T16:50:01;90.9;77.2;
13030;PMS7003;6582;54.644;9.760;2023-05-23T16:55:02;83.7;69.0;
13030;PMS7003;6582;54.644;9.760;2023-05-23T17:00:01;80.4;64.5;
13030;PMS7003;6582;54.644;9.760;2023-05-23T17:05:01;78.9;62.0;
13030;PMS7003;6582;54.644;9.760;2023-05-23T17:10:06;77.8;61.8;
13030;PMS7003;6582;54.644;9.760;2023-05-23T17:15:01;77.9;62.6;
13030;PMS7003;6582;54.644;9.760;2023-05-23T17:20:01;78.0;62.2;
13030;PMS7003;6582;54.644;9.760;2023-05-23T17:25:01;77.8;62.1;
13030;PMS7003;6582;54.644;9.760;2023-05-23T17:30:01;77.1;61.5;
13030;PMS7003;6582;54.644;9.760;2023-05-23T17:35:01;77.0;60.5;
13030;PMS7003;6582;54.644;9.760;2023-05-23T17:40:01;76.8;59.6;
13030;PMS7003;6582;54.644;9.760;2023-05-23T17:45:01;75.2;58.8;
13030;PMS7003;6582;54.644;9.760;2023-05-23T17:50:06;74.6;58.4;
13030;PMS7003;6582;54.644;9.760;2023-05-23T17:55:01;74.0;58.9;
13030;PMS7003;6582;54.644;9.760;2023-05-23T18:00:06;73.8;58.9;
13030;PMS7003;6582;54.644;9.760;2023-05-23T18:10:01;74.2;59.3;
13030;PMS7003;6582;54.644;9.760;2023-05-23T18:15:06;74.8;59.7;
13030;PMS7003;6582;54.644;9.760;2023-05-23T18:20:01;76.0;59.8;
13030;PMS7003;6582;54.644;9.760;2023-05-23T18:25:01;76.2;60.1;
13030;PMS7003;6582;54.644;9.760;2023-05-23T18:30:01;77.3;61.0;
13030;PMS7003;6582;54.644;9.760;2023-05-23T18:35:01;77.8;61.3;
13030;PMS7003;6582;54.644;9.760;2023-05-23T18:40:01;85.2;69.6;
13030;PMS7003;6582;54.644;9.760;2023-05-23T18:45:01;85.9;70.8;
13030;PMS7003;6582;54.644;9.760;2023-05-23T18:50:01;86.8;72.4;
13030;PMS7003;6582;54.644;9.760;2023-05-23T18:55:01;87.3;74.0;
13030;PMS7003;6582;54.644;9.760;2023-05-23T19:00:01;87.4;74.4;
13030;PMS7003;6582;54.644;9.760;2023-05-23T19:05:01;81.4;68.0;
13030;PMS7003;6582;54.644;9.760;2023-05-23T19:10:01;81.7;69.0;
13030;PMS7003;6582;54.644;9.760;2023-05-23T19:15:01;81.6;68.3;
13030;PMS7003;6582;54.644;9.760;2023-05-23T19:20:02;81.7;67.6;
13030;PMS7003;6582;54.644;9.760;2023-05-23T19:25:01;83.8;70.3;
13030;PMS7003;6582;54.644;9.760;2023-05-23T19:30:01;83.3;69.4;
13030;PMS7003;6582;54.644;9.760;2023-05-23T19:35:01;83.5;69.8;
13030;PMS7003;6582;54.644;9.760;2023-05-23T19:40:01;83.4;69.7;
13030;PMS7003;6582;54.644;9.760;2023-05-23T19:45:01;82.7;69.3;
13030;PMS7003;6582;54.644;9.760;2023-05-23T19:50:01;81.1;67.2;
13030;PMS7003;6582;54.644;9.760;2023-05-23T19:55:04;81.0;67.6;
13030;PMS7003;6582;54.644;9.760;2023-05-23T20:00:01;78.7;64.4;
13030;PMS7003;6582;54.644;9.760;2023-05-23T20:05:01;78.4;64.5;
13030;PMS7003;6582;54.644;9.760;2023-05-23T20:10:01;77.1;63.2;
13030;PMS7003;6582;54.644;9.760;2023-05-23T20:15:01;76.4;62.0;
13030;PMS7003;6582;54.644;9.760;2023-05-23T20:20:01;74.9;60.8;
13030;PMS7003;6582;54.644;9.760;2023-05-23T20:25:01;75.0;60.5;
13030;PMS7003;6582;54.644;9.760;2023-05-23T20:30:01;74.4;59.7;
13030;PMS7003;6582;54.644;9.760;2023-05-23T20:35:01;75.6;60.7;
13030;PMS7003;6582;54.644;9.760;2023-05-23T20:40:01;76.4;60.8;
13030;PMS7003;6582;54.644;9.760;2023-05-23T20:45:02;76.5;60.4;
13030;PMS7003;6582;54.644;9.760;2023-05-23T20:55:02;76.2;60.0;
13030;PMS7003;6582;54.644;9.760;2023-05-23T21:00:02;74.6;58.3;
13030;PMS7003;6582;54.644;9.760;2023-05-23T21:05:01;73.2;57.5;
13030;PMS7003;6582;54.644;9.760;2023-05-23T21:10:01;73.5;57.8;
13030;PMS7003;6582;54.644;9.760;2023-05-23T21:15:01;73.2;57.8;
13030;PMS7003;6582;54.644;9.760;2023-05-23T21:20:01;73.8;58.2;
13030;PMS7003;6582;54.644;9.760;2023-05-23T21:25:01;74.2;58.7;
13030;PMS7003;6582;54.644;9.760;2023-05-23T21:30:01;73.9;58.8;
13030;PMS7003;6582;54.644;9.760;2023-05-23T21:35:01;74.2;59.3;
13030;PMS7003;6582;54.644;9.760;2023-05-23T21:40:01;75.0;60.0;
13030;PMS7003;6582;54.644;9.760;2023-05-23T21:45:01;74.7;59.5;
13030;PMS7003;6582;54.644;9.760;2023-05-23T21:50:01;74.2;59.2;
13030;PMS7003;6582;54.644;9.760;2023-05-23T21:55:01;74.7;59.5;
13030;PMS7003;6582;54.644;9.760;2023-05-23T22:00:01;75.2;59.2;
13030;PMS7003;6582;54.644;9.760;2023-05-23T22:05:01;74.7;58.8;
13030;PMS7003;6582;54.644;9.760;2023-05-23T22:10:01;75.2;59.0;
13030;PMS7003;6582;54.644;9.760;2023-05-23T22:15:01;75.4;59.2;
13030;PMS7003;6582;54.644;9.760;2023-05-23T22:20:01;75.9;59.4;
13030;PMS7003;6582;54.644;9.760;2023-05-23T22:25:01;74.5;59.0;
13030;PMS7003;6582;54.644;9.760;2023-05-23T22:30:01;74.2;58.7;
13030;PMS7003;6582;54.644;9.760;2023-05-23T22:35:01;74.0;59.0;
13030;PMS7003;6582;54.644;9.760;2023-05-23T22:40:01;74.2;59.0;
13030;PMS7003;6582;54.644;9.760;2023-05-23T22:45:01;73.8;59.3;
13030;PMS7003;6582;54.644;9.760;2023-05-23T22:50:01;74.6;59.5;
13030;PMS7003;6582;54.644;9.760;2023-05-23T22:55:01;74.7;59.4;
13030;PMS7003;6582;54.644;9.760;2023-05-23T23:00:01;74.7;58.8;
13030;PMS7003;6582;54.644;9.760;2023-05-23T23:05:01;74.6;58.6;
13030;PMS7003;6582;54.644;9.760;2023-05-23T23:10:01;75.9;58.7;
13030;PMS7003;6582;54.644;9.760;2023-05-23T23:15:01;76.7;59.5;
13030;PMS7003;6582;54.644;9.760;2023-05-23T23:20:01;77.1;59.6;
13030;PMS7003;6582;54.644;9.760;2023-05-23T23:25:02;76.7;59.8;
13030;PMS7003;6582;54.644;9.760;2023-05-23T23:30:01;77.1;60.3;
13030;PMS7003;6582;54.644;9.760;2023-05-23T23:40:01;77.5;60.4;
13030;PMS7003;6582;54.644;9.760;2023-05-23T23:45:01;79.1;62.1;
13030;PMS7003;6582;54.644;9.760;2023-05-23T23:50:01;82.9;66.7;
13030;PMS7003;6582;54.644;9.760;2023-05-23T23:55:01;85.9;70.9;
